Time;durP1;ratioP1;P1;durP2;ratioP2;P2;SDS_P1;SDS_P2;PMS_P1;PMS_P2;Temp;Humidity;BMP_temperature;BMP_pressure;BME280_temperature;BME280_humidity;BME280_pressure;Samples;Min_cycle;Max_cycle;Signal;HPM_P1;HPM_P2
2023/01/09 00:01:02;;;;;;;3.58;1.30;;;7.60;99.90;;;;;;6189750;23;20056;-82
2023/01/09 00:03:27;;;;;;;5.78;1.20;;;7.70;99.90;;;;;;6163846;23;20004;-82
2023/01/09 00:05:53;;;;;;;6.28;1.42;;;7.60;99.90;;;;;;6163859;23;20013;-82
2023/01/09 00:08:18;;;;;;;6.22;1.73;;;7.60;99.90;;;;;;6189374;23;20062;-82
2023/01/09 00:10:44;;;;;;;2.95;1.00;;;7.60;99.90;;;;;;6164939;23;20020;-82
2023/01/09 00:13:11;;;;;;;4.18;1.23;;;7.70;99.90;;;;;;6164414;23;20044;-82
2023/01/09 00:15:38;;;;;;;3.72;1.02;;;7.70;99.90;;;;;;6163940;23;20020;-82
2023/01/09 00:18:03;;;;;;;2.67;1.00;;;7.70;99.90;;;;;;6189414;23;20562;-82
2023/01/09 00:20:29;;;;;;;4.50;0.82;;;8.00;99.90;;;;;;6189346;23;20021;-82
2023/01/09 00:22:54;;;;;;;4.20;0.70;;;7.80;99.90;;;;;;6164322;23;20020;-82
2023/01/09 00:25:21;;;;;;;2.78;0.80;;;7.80;99.90;;;;;;6164642;23;20015;-82
2023/01/09 00:27:47;;;;;;;2.17;0.63;;;7.80;99.90;;;;;;6189962;23;20024;-82
2023/01/09 00:30:12;;;;;;;3.13;0.80;;;7.80;99.90;;;;;;6164653;23;20020;-82
2023/01/09 00:32:39;;;;;;;3.42;0.60;;;7.80;99.90;;;;;;6163507;23;20056;-82
2023/01/09 00:35:07;;;;;;;5.00;0.75;;;7.70;99.90;;;;;;6164336;23;20027;-82
2023/01/09 00:37:33;;;;;;;6.60;0.90;;;7.70;99.90;;;;;;6187913;23;20401;-82
2023/01/09 00:39:58;;;;;;;2.83;0.60;;;7.70;99.90;;;;;;6164707;23;20017;-82
2023/01/09 00:42:28;;;;;;;2.83;1.00;;;7.70;99.90;;;;;;6164848;23;20023;-82
2023/01/09 00:45:00;;;;;;;5.00;0.68;;;7.60;99.90;;;;;;6163693;23;20066;-82
2023/01/09 00:47:31;;;;;;;2.22;0.45;;;7.70;99.90;;;;;;6164163;23;20040;-82
2023/01/09 00:50:05;;;;;;;1.65;0.50;;;7.60;99.90;;;;;;6164299;23;20021;-82
2023/01/09 00:52:33;;;;;;;1.30;0.40;;;7.60;99.90;;;;;;6163457;23;20137;-82
2023/01/09 00:54:59;;;;;;;2.40;0.45;;;7.60;99.90;;;;;;6163324;23;20020;-81
2023/01/09 00:57:24;;;;;;;3.05;0.50;;;7.60;99.90;;;;;;6188659;23;20068;-82
2023/01/09 00:59:51;;;;;;;3.35;0.75;;;7.50;99.90;;;;;;6162355;23;20012;-82
2023/01/09 01:02:17;;;;;;;2.47;0.50;;;7.50;99.90;;;;;;6188391;23;20038;-81
2023/01/09 01:07:38;;;;;;;3.60;0.50;;;7.50;99.90;;;;;;6187925;23;20027;-82
2023/01/09 01:10:15;;;;;;;2.97;0.40;;;7.50;99.90;;;;;;6189193;23;20009;-81
2023/01/09 01:12:41;;;;;;;1.67;0.52;;;7.40;99.90;;;;;;6187978;23;20017;-82
2023/01/09 01:15:08;;;;;;;2.17;0.35;;;7.40;99.90;;;;;;6188582;23;20012;-82
2023/01/09 01:17:35;;;;;;;3.33;0.60;;;7.40;99.90;;;;;;6163609;23;20035;-82
2023/01/09 01:20:03;;;;;;;2.75;0.22;;;7.30;99.90;;;;;;6164301;23;20016;-82
2023/01/09 01:22:28;;;;;;;1.30;0.22;;;7.40;99.90;;;;;;6163404;23;20020;-82
2023/01/09 01:24:54;;;;;;;0.93;0.20;;;7.30;99.90;;;;;;6188030;23;20009;-81
2023/01/09 01:27:19;;;;;;;1.98;0.30;;;7.30;99.90;;;;;;6163028;23;20066;-82
2023/01/09 01:29:45;;;;;;;3.40;0.35;;;7.20;99.90;;;;;;6188571;23;20024;-82
2023/01/09 01:32:10;;;;;;;1.98;0.20;;;7.20;99.90;;;;;;6163266;23;20012;-82
2023/01/09 01:34:36;;;;;;;2.28;0.28;;;7.20;99.90;;;;;;6188581;23;20373;-82
2023/01/09 01:37:02;;;;;;;1.95;0.30;;;7.20;99.90;;;;;;6162584;23;20044;-82
2023/01/09 01:39:27;;;;;;;2.45;0.22;;;7.10;99.90;;;;;;6188784;23;20008;-82
2023/01/09 01:41:53;;;;;;;4.32;0.82;;;7.20;99.90;;;;;;6186195;23;20095;-82
2023/01/09 01:44:55;;;;;;;1.65;0.50;;;7.10;99.90;;;;;;6163125;23;20094;-82
2023/01/09 01:47:42;;;;;;;3.25;0.50;;;7.10;99.90;;;;;;6163139;23;20058;-82
2023/01/09 01:50:37;;;;;;;4.63;0.90;;;7.10;99.90;;;;;;6137658;23;20099;-82
2023/01/09 01:53:14;;;;;;;1.48;0.30;;;7.10;99.90;;;;;;6131691;23;20091;-82
2023/01/09 01:56:00;;;;;;;2.80;0.55;;;7.10;99.90;;;;;;6187594;23;20088;-82
2023/01/09 01:58:26;;;;;;;2.17;0.50;;;7.10;99.90;;;;;;6187679;23;20012;-82
2023/01/09 02:00:52;;;;;;;1.73;0.40;;;7.50;99.90;;;;;;6161846;23;20062;-82
2023/01/09 02:03:23;;;;;;;2.83;0.90;;;7.10;99.90;;;;;;6162767;23;20410;-82
2023/01/09 02:05:49;;;;;;;4.65;0.90;;;7.10;99.90;;;;;;6162480;23;20442;-82
2023/01/09 02:08:15;;;;;;;6.20;1.17;;;7.10;99.90;;;;;;6162802;23;20079;-81
2023/01/09 02:10:42;;;;;;;2.83;0.50;;;7.00;99.90;;;;;;6187634;23;20020;-82
2023/01/09 02:13:09;;;;;;;5.40;0.77;;;7.00;99.90;;;;;;6187771;23;20405;-82
2023/01/09 02:16:13;;;;;;;3.30;0.45;;;6.90;99.90;;;;;;6186590;23;20326;-82
2023/01/09 02:18:45;;;;;;;2.70;0.77;;;6.90;99.90;;;;;;6134499;23;20100;-82
2023/01/09 02:21:29;;;;;;;4.45;0.80;;;6.90;99.90;;;;;;6190459;23;20021;-81
2023/01/09 02:24:18;;;;;;;3.55;0.60;;;6.90;99.90;;;;;;6189833;23;20020;-81
2023/01/09 02:26:52;;;;;;;3.85;0.60;;;6.80;99.90;;;;;;6189920;23;20016;-82
2023/01/09 02:29:29;;;;;;;4.13;1.60;;;6.90;99.90;;;;;;6164591;23;20024;-82
2023/01/09 02:31:59;;;;;;;7.65;1.83;;;6.80;99.90;;;;;;6189861;23;20024;-82
2023/01/09 02:34:40;;;;;;;7.88;0.80;;;6.80;99.90;;;;;;6189166;23;20052;-82
2023/01/09 02:37:29;;;;;;;4.30;0.80;;;6.80;99.90;;;;;;6188346;23;20468;-82
2023/01/09 02:40:20;;;;;;;4.70;0.80;;;6.70;99.90;;;;;;6189026;23;20023;-82
2023/01/09 02:42:46;;;;;;;7.72;1.27;;;6.70;99.90;;;;;;6164403;23;20421;-82
2023/01/09 02:45:13;;;;;;;5.25;1.50;;;6.60;99.90;;;;;;6165232;23;20015;-82
2023/01/09 02:47:44;;;;;;;4.18;1.10;;;6.60;99.90;;;;;;6189392;23;20023;-82
2023/01/09 02:50:20;;;;;;;7.20;1.80;;;6.60;99.90;;;;;;6164284;23;20051;-81
2023/01/09 02:52:46;;;;;;;;;;;6.60;99.90;;;;;;6188585;23;20031;-82
2023/01/09 02:55:39;;;;;;;7.90;1.13;;;6.50;99.90;;;;;;6187870;23;19986;-82
2023/01/09 02:58:33;;;;;;;4.80;1.23;;;6.50;99.90;;;;;;6188537;23;20013;-82
2023/01/09 03:01:15;;;;;;;4.75;1.17;;;6.40;99.90;;;;;;6188125;23;20047;-82
2023/01/09 03:04:12;;;;;;;3.80;1.45;;;6.50;99.90;;;;;;6189016;23;20017;-82
2023/01/09 03:06:55;;;;;;;4.65;1.33;;;6.40;99.90;;;;;;6188023;23;20019;-82
2023/01/09 03:09:26;;;;;;;6.13;1.90;;;6.40;99.90;;;;;;6189118;23;20449;-82
2023/01/09 03:11:58;;;;;;;7.47;1.55;;;6.30;99.90;;;;;;6189234;23;20013;-82
2023/01/09 03:14:25;;;;;;;5.90;1.75;;;6.30;99.90;;;;;;6164901;23;20044;-82
2023/01/09 03:16:57;;;;;;;7.18;1.45;;;6.30;99.90;;;;;;6163754;23;20012;-82
2023/01/09 03:19:25;;;;;;;5.03;1.70;;;6.30;99.90;;;;;;6164167;23;20013;-81
2023/01/09 03:21:53;;;;;;;7.85;1.98;;;6.20;99.90;;;;;;6163523;23;20018;-82
2023/01/09 03:24:19;;;;;;;5.55;1.98;;;6.20;99.90;;;;;;6164589;23;20016;-81
2023/01/09 03:26:45;;;;;;;6.10;2.20;;;6.10;99.90;;;;;;6188153;23;20009;-82
2023/01/09 03:29:10;;;;;;;4.07;1.95;;;6.10;99.90;;;;;;6189448;23;20359;-82
2023/01/09 03:31:36;;;;;;;9.48;1.77;;;6.10;99.90;;;;;;6190024;23;20062;-82
2023/01/09 03:34:01;;;;;;;6.10;1.90;;;6.10;99.90;;;;;;6164474;23;20091;-82
2023/01/09 03:36:27;;;;;;;5.63;1.88;;;6.00;99.90;;;;;;6188331;23;20035;-82
2023/01/09 03:38:52;;;;;;;5.20;2.00;;;6.00;99.90;;;;;;6188630;23;20012;-82
2023/01/09 03:41:18;;;;;;;6.97;1.90;;;6.00;99.90;;;;;;6187983;23;20016;-82
2023/01/09 03:43:46;;;;;;;8.40;2.42;;;5.90;99.90;;;;;;6187030;23;20733;-82
2023/01/09 03:46:12;;;;;;;4.47;2.00;;;5.90;99.90;;;;;;6188407;23;20009;-81
2023/01/09 03:48:37;;;;;;;7.47;1.83;;;5.90;99.90;;;;;;6163459;23;20016;-82
2023/01/09 03:51:03;;;;;;;5.93;1.73;;;5.90;99.90;;;;;;6163880;23;20361;-82
2023/01/09 03:53:28;;;;;;;6.65;2.40;;;5.90;99.90;;;;;;6188126;23;20453;-82
2023/01/09 03:55:56;;;;;;;5.82;2.30;;;5.90;99.90;;;;;;6162506;23;20043;-82
2023/01/09 03:58:22;;;;;;;5.85;1.65;;;5.90;99.90;;;;;;6162998;23;20089;-82
2023/01/09 04:00:49;;;;;;;8.90;2.53;;;5.90;99.90;;;;;;6164054;23;20021;-82
2023/01/09 04:03:16;;;;;;;5.47;3.05;;;5.90;99.90;;;;;;6189513;23;20055;-82
2023/01/09 04:05:43;;;;;;;7.47;2.35;;;5.90;99.90;;;;;;6186958;23;20035;-82
2023/01/09 04:08:09;;;;;;;5.70;2.50;;;5.90;99.90;;;;;;6188061;23;20016;-82
2023/01/09 04:10:35;;;;;;;8.02;2.22;;;5.80;99.90;;;;;;6163103;23;20023;-82
2023/01/09 04:13:01;;;;;;;11.10;2.65;;;5.80;99.90;;;;;;6187695;23;20019;-82
2023/01/09 04:15:26;;;;;;;6.40;2.75;;;5.80;99.90;;;;;;6161093;23;20023;-82
2023/01/09 04:17:52;;;;;;;8.07;2.80;;;5.90;99.90;;;;;;6163415;23;20012;-82
2023/01/09 04:20:17;;;;;;;8.40;2.55;;;5.70;99.90;;;;;;6163817;23;20488;-82
2023/01/09 04:22:44;;;;;;;6.82;3.03;;;5.70;99.90;;;;;;6185480;23;20473;-82
2023/01/09 04:25:10;;;;;;;8.50;2.97;;;5.60;99.90;;;;;;6186782;23;20099;-82
2023/01/09 04:27:36;;;;;;;9.38;2.80;;;5.60;99.90;;;;;;6187743;23;20459;-82
2023/01/09 04:30:02;;;;;;;9.20;3.03;;;5.60;99.90;;;;;;6162016;23;20021;-82
2023/01/09 04:32:27;;;;;;;7.30;3.22;;;5.50;99.90;;;;;;6186950;23;20067;-82
2023/01/09 04:34:56;;;;;;;5.85;2.85;;;5.50;99.90;;;;;;6161361;23;20039;-82
2023/01/09 04:37:22;;;;;;;5.55;3.80;;;5.50;99.90;;;;;;6162327;23;20063;-82
2023/01/09 04:39:50;;;;;;;7.32;4.15;;;5.40;99.90;;;;;;6186758;23;20044;-82
2023/01/09 04:42:15;;;;;;;11.18;4.32;;;5.40;99.90;;;;;;6187575;23;20060;-82
2023/01/09 04:44:41;;;;;;;7.93;4.75;;;5.50;99.90;;;;;;6162529;23;20095;-82
2023/01/09 04:47:07;;;;;;;8.32;5.53;;;5.40;99.90;;;;;;6162793;23;20023;-82
2023/01/09 04:49:32;;;;;;;11.80;6.35;;;5.40;99.90;;;;;;6187117;23;20052;-82
2023/01/09 04:51:58;;;;;;;7.97;5.88;;;5.40;99.90;;;;;;6161437;23;20023;-82
2023/01/09 04:54:23;;;;;;;8.85;5.70;;;5.40;99.90;;;;;;6162038;23;20075;-82
2023/01/09 04:56:49;;;;;;;12.68;6.82;;;5.40;99.90;;;;;;6161255;23;20012;-82
2023/01/09 04:59:15;;;;;;;10.45;6.97;;;5.50;99.90;;;;;;6186430;23;20290;-82
2023/01/09 05:01:40;;;;;;;10.45;7.18;;;5.50;99.90;;;;;;6157207;23;20043;-82
2023/01/09 05:04:06;;;;;;;9.93;7.80;;;5.50;99.90;;;;;;6187061;23;20020;-82
2023/01/09 05:06:33;;;;;;;10.63;8.93;;;5.50;99.90;;;;;;6161819;23;20020;-82
2023/01/09 05:08:59;;;;;;;13.38;8.93;;;5.50;99.90;;;;;;6160799;23;20019;-82
2023/01/09 05:11:25;;;;;;;13.57;8.45;;;5.50;99.90;;;;;;6159086;23;20520;-82
2023/01/09 05:13:52;;;;;;;15.05;9.02;;;5.50;99.90;;;;;;6159885;23;20044;-82
2023/01/09 05:16:17;;;;;;;12.60;9.23;;;5.50;99.90;;;;;;6159768;23;20016;-82
2023/01/09 05:18:43;;;;;;;10.88;9.63;;;5.50;99.90;;;;;;6188959;23;20015;-84
2023/01/09 05:21:09;;;;;;;13.98;9.63;;;5.50;99.90;;;;;;6165750;23;20020;-84
2023/01/09 05:23:35;;;;;;;12.43;10.70;;;5.50;99.90;;;;;;6191012;23;20020;-84
2023/01/09 05:26:03;;;;;;;17.45;9.82;;;5.40;99.90;;;;;;6193400;23;20017;-84
2023/01/09 05:28:29;;;;;;;12.10;9.50;;;5.40;99.90;;;;;;6160955;23;20020;-83
2023/01/09 05:30:54;;;;;;;16.48;10.25;;;5.40;99.90;;;;;;6161884;23;20023;-82
2023/01/09 05:33:20;;;;;;;17.77;10.70;;;5.40;99.90;;;;;;6185975;23;20469;-83
2023/01/09 05:35:46;;;;;;;17.40;11.50;;;5.40;99.90;;;;;;6162625;23;20016;-82
2023/01/09 05:38:12;;;;;;;15.60;11.02;;;5.40;99.90;;;;;;6162806;23;20012;-83
2023/01/09 05:41:15;;;;;;;12.85;10.98;;;5.40;99.90;;;;;;6164880;23;20025;-83
2023/01/09 05:43:41;;;;;;;13.90;11.15;;;5.40;99.90;;;;;;6161710;23;20024;-84
2023/01/09 05:46:06;;;;;;;14.23;12.20;;;5.30;99.90;;;;;;6161900;23;20008;-83
2023/01/09 05:48:32;;;;;;;12.88;11.35;;;5.30;99.90;;;;;;6163014;23;20020;-84
2023/01/09 05:51:00;;;;;;;13.60;11.13;;;5.30;99.90;;;;;;6162284;23;20016;-86
2023/01/09 05:53:26;;;;;;;17.30;12.52;;;5.40;99.90;;;;;;6162688;23;20022;-84
2023/01/09 05:55:51;;;;;;;16.45;11.85;;;5.30;99.90;;;;;;6187354;23;20465;-84
2023/01/09 05:58:17;;;;;;;16.98;11.95;;;5.30;99.90;;;;;;6162179;23;20078;-85
2023/01/09 06:00:42;;;;;;;13.57;12.13;;;5.40;99.90;;;;;;6160227;23;20021;-84
2023/01/09 06:03:08;;;;;;;16.55;11.18;;;5.30;99.90;;;;;;6162178;23;20019;-86
2023/01/09 06:05:34;;;;;;;16.25;12.07;;;5.30;99.90;;;;;;6163283;23;20712;-82
2023/01/09 06:07:59;;;;;;;13.02;11.80;;;5.40;99.90;;;;;;6164938;23;20095;-82
2023/01/09 06:10:25;;;;;;;14.35;11.43;;;5.40;99.90;;;;;;6190230;23;20117;-81
2023/01/09 06:12:51;;;;;;;17.15;12.27;;;5.40;99.90;;;;;;6186762;23;20349;-83
2023/01/09 06:19:16;;;;;;;13.43;11.32;;;5.40;99.90;;;;;;6151193;23;20043;-85
2023/01/09 06:21:45;;;;;;;16.15;11.15;;;5.40;99.90;;;;;;6112679;23;20032;-85
2023/01/09 06:24:12;;;;;;;13.30;11.52;;;5.50;99.90;;;;;;6162813;23;20104;-86
2023/01/09 06:26:46;;;;;;;13.82;10.82;;;5.50;99.90;;;;;;6185105;23;20469;-86
2023/01/09 06:29:15;;;;;;;16.73;10.80;;;5.50;99.90;;;;;;6159503;23;20016;-84
2023/01/09 06:31:41;;;;;;;13.43;9.73;;;5.50;99.90;;;;;;6161115;23;20032;-84
2023/01/09 06:34:07;;;;;;;10.85;9.40;;;5.50;99.90;;;;;;6161369;23;20013;-84
2023/01/09 06:36:44;;;;;;;13.07;8.70;;;5.50;99.90;;;;;;6113152;23;20020;-86
2023/01/09 06:39:12;;;;;;;12.95;8.57;;;5.70;99.90;;;;;;6185416;23;20009;-86
2023/01/09 06:41:55;;;;;;;14.32;9.23;;;5.70;99.90;;;;;;6186704;23;20017;-86
2023/01/09 06:44:20;;;;;;;18.08;8.52;;;5.50;99.90;;;;;;6154307;23;20071;-84
2023/01/09 06:46:46;;;;;;;11.40;7.90;;;5.70;99.90;;;;;;6137516;23;20013;-84
2023/01/09 06:49:12;;;;;;;8.15;7.32;;;5.50;99.90;;;;;;6162503;23;20016;-85
2023/01/09 06:59:03;;;;;;;8.88;6.07;;;5.30;99.90;;;;;;6123547;23;20051;-85
2023/01/09 07:01:56;;;;;;;12.02;5.97;;;5.30;99.90;;;;;;6183931;23;20056;-85
2023/01/09 07:04:48;;;;;;;17.15;5.75;;;5.20;99.90;;;;;;6114976;23;20056;-86
2023/01/09 07:07:29;;;;;;;14.25;5.70;;;5.20;99.90;;;;;;6190589;23;20043;-86
2023/01/09 11:24:31;;;;;;;5.50;3.05;;;7.10;99.90;;;;;;6186139;23;20083;-85
2023/01/09 11:27:27;;;;;;;9.00;4.38;;;7.20;99.90;;;;;;6187580;23;20020;-88
2023/01/09 11:34:40;;;;;;;6.18;3.67;;;7.20;99.90;;;;;;6186801;23;20083;-86
2023/01/09 11:37:49;;;;;;;7.90;4.03;;;7.20;99.90;;;;;;6183893;23;20071;-85
2023/01/09 11:40:45;;;;;;;10.40;3.70;;;7.30;99.90;;;;;;6187887;23;20020;-86
2023/01/09 11:43:15;;;;;;;8.20;4.20;;;7.20;99.90;;;;;;6161792;23;20023;-87
2023/01/09 11:45:50;;;;;;;9.38;4.57;;;7.30;99.90;;;;;;6161876;23;20048;-85
2023/01/09 11:49:10;;;;;;;7.63;4.35;;;7.50;99.90;;;;;;6161257;23;20016;-86
2023/01/09 11:52:25;;;;;;;10.70;4.18;;;7.50;99.90;;;;;;6213913;23;20017;-85
2023/01/09 11:55:12;;;;;;;5.78;4.15;;;7.40;99.90;;;;;;6186831;23;20020;-84
2023/01/09 11:57:37;;;;;;;9.20;5.15;;;7.40;99.90;;;;;;6161963;23;20043;-86
2023/01/09 12:00:31;;;;;;;8.07;4.50;;;8.00;99.90;;;;;;6161345;23;20017;-85
2023/01/09 12:03:21;;;;;;;11.07;4.93;;;7.60;99.90;;;;;;6145184;23;20024;-86
2023/01/09 12:06:25;;;;;;;10.48;5.15;;;8.40;99.90;;;;;;6162504;23;20023;-87
2023/01/09 12:09:57;;;;;;;8.82;4.60;;;7.70;99.90;;;;;;6212172;23;20070;-85
2023/01/09 12:16:35;;;;;;;7.93;5.10;;;7.80;99.90;;;;;;6206718;23;20031;-86
2023/01/09 12:19:40;;;;;;;12.10;5.60;;;7.90;99.90;;;;;;6156132;23;20013;-86
2023/01/09 12:22:27;;;;;;;8.35;5.40;;;7.90;99.90;;;;;;6207213;23;20020;-86
2023/01/09 12:25:16;;;;;;;5.88;4.65;;;7.90;99.90;;;;;;6157662;23;20069;-85
2023/01/09 12:28:13;;;;;;;12.10;5.75;;;7.90;99.90;;;;;;6209339;23;20027;-85
2023/01/09 12:31:02;;;;;;;11.20;4.90;;;8.00;99.90;;;;;;6183785;23;20059;-85
2023/01/09 12:33:52;;;;;;;6.13;4.80;;;8.10;99.90;;;;;;6182419;23;20013;-85
2023/01/09 12:36:24;;;;;;;7.25;4.93;;;8.10;99.90;;;;;;6210015;23;20013;-85
2023/01/09 12:39:00;;;;;;;7.15;5.10;;;8.00;99.90;;;;;;6182110;23;20044;-85
2023/01/09 12:41:49;;;;;;;6.97;5.07;;;8.00;99.90;;;;;;6183426;23;20028;-86
2023/01/09 12:44:15;;;;;;;6.10;4.82;;;8.10;99.90;;;;;;6183715;23;20505;-85
2023/01/09 12:46:51;;;;;;;9.30;5.38;;;8.00;99.90;;;;;;6157958;23;20055;-85
2023/01/09 12:49:16;;;;;;;;;;;8.00;99.90;;;;;;6184113;23;20028;-85
2023/01/09 12:51:52;;;;;;;6.13;5.23;;;8.00;99.90;;;;;;6184925;23;19916;-84
2023/01/09 12:54:35;;;;;;;7.03;5.25;;;8.00;99.90;;;;;;6185342;23;20276;-84
2023/01/09 12:57:06;;;;;;;12.00;5.18;;;8.00;99.90;;;;;;6187992;23;20051;-83
2023/01/09 12:59:52;;;;;;;5.65;5.03;;;8.00;99.90;;;;;;6165398;23;20013;-84
2023/01/09 13:02:27;;;;;;;7.80;5.15;;;8.00;99.90;;;;;;6188861;23;20017;-84
2023/01/09 13:04:57;;;;;;;7.47;5.18;;;8.00;99.90;;;;;;6164198;23;20091;-84
2023/01/09 13:07:30;;;;;;;8.10;5.10;;;8.00;99.90;;;;;;6163043;23;20015;-84
2023/01/09 13:10:15;;;;;;;8.02;5.75;;;8.00;99.90;;;;;;6160701;23;20500;-85
2023/01/09 13:12:43;;;;;;;8.43;4.93;;;8.00;99.90;;;;;;6186933;23;20492;-84
2023/01/09 13:15:28;;;;;;;10.98;6.30;;;8.00;99.90;;;;;;6188999;23;20013;-84
2023/01/09 13:18:20;;;;;;;6.60;5.43;;;8.00;99.90;;;;;;6161939;23;20008;-84
2023/01/09 13:20:51;;;;;;;7.15;5.22;;;8.00;99.90;;;;;;6121728;23;20414;-84
2023/01/09 13:23:23;;;;;;;7.95;5.70;;;8.00;99.90;;;;;;6161244;23;20012;-84
2023/01/09 13:25:51;;;;;;;9.27;5.63;;;8.00;99.90;;;;;;6162553;23;20012;-84
2023/01/09 13:28:47;;;;;;;11.57;5.90;;;8.10;99.90;;;;;;6188124;23;20043;-84
2023/01/09 13:31:22;;;;;;;10.43;5.43;;;8.10;99.90;;;;;;6182440;23;20048;-84
2023/01/09 13:33:56;;;;;;;11.40;5.50;;;8.10;99.90;;;;;;6162999;23;20073;-84
2023/01/09 13:36:27;;;;;;;8.93;5.13;;;8.80;99.90;;;;;;6186275;23;20013;-84
2023/01/09 13:38:57;;;;;;;10.77;5.80;;;8.10;99.90;;;;;;6165492;23;20013;-84
2023/01/09 13:44:17;;;;;;;8.98;5.15;;;8.20;99.90;;;;;;6188497;23;20039;-84
2023/01/09 13:46:56;;;;;;;11.00;4.60;;;8.20;99.90;;;;;;6163268;23;20043;-84
2023/01/09 13:49:45;;;;;;;8.63;4.80;;;8.20;99.90;;;;;;6164319;23;20017;-84
2023/01/09 13:52:40;;;;;;;12.90;4.07;;;8.20;99.90;;;;;;6161677;23;20127;-84
2023/01/09 13:55:14;;;;;;;9.95;4.35;;;8.30;99.90;;;;;;6159941;23;20021;-83
2023/01/09 13:58:04;;;;;;;7.72;3.70;;;8.30;99.90;;;;;;6160170;23;20079;-85
2023/01/09 14:00:36;;;;;;;8.20;3.33;;;8.30;99.90;;;;;;6189138;23;20012;-83
2023/01/09 14:04:08;;;;;;;6.97;2.72;;;8.20;99.90;;;;;;6185360;23;20083;-86
2023/01/09 14:14:47;;;;;;;9.18;2.25;;;8.20;99.90;;;;;;6031817;23;20035;-88
2023/01/09 14:32:28;;;;;;;7.10;2.10;;;8.20;99.90;;;;;;6029556;23;20022;-88
2023/01/09 14:34:53;;;;;;;13.63;2.88;;;8.10;99.90;;;;;;5987630;23;20023;-85
2023/01/09 14:37:19;;;;;;;12.32;1.85;;;8.10;99.90;;;;;;6095053;23;20016;-84
2023/01/09 14:39:49;;;;;;;10.82;2.00;;;8.20;99.90;;;;;;6183404;23;20567;-86
2023/01/09 14:42:21;;;;;;;13.20;2.28;;;8.20;99.90;;;;;;6184082;23;20131;-83
2023/01/09 14:45:02;;;;;;;10.82;2.30;;;8.20;99.90;;;;;;6158938;23;20004;-87
2023/01/09 14:47:38;;;;;;;20.77;2.67;;;8.20;99.90;;;;;;6158042;23;20013;-85
2023/01/09 14:50:56;;;;;;;12.00;2.05;;;8.20;99.90;;;;;;6178778;23;20009;-86
2023/01/09 14:53:44;;;;;;;15.48;2.35;;;8.20;99.90;;;;;;6155455;23;20020;-86
2023/01/09 14:56:38;;;;;;;12.30;2.70;;;8.20;99.90;;;;;;6164283;23;20024;-86
2023/01/09 15:00:00;;;;;;;13.75;1.80;;;8.10;99.90;;;;;;6181124;23;20056;-88
2023/01/09 15:02:36;;;;;;;9.70;3.17;;;8.20;99.90;;;;;;6181216;23;20028;-87
2023/01/09 15:05:42;;;;;;;10.95;2.15;;;8.30;99.90;;;;;;6186002;23;20487;-87
2023/01/09 15:08:28;;;;;;;11.30;2.10;;;8.10;99.90;;;;;;6133036;23;20021;-85
2023/01/09 15:10:55;;;;;;;;;;;8.30;99.90;;;;;;6151772;23;20150;-85
2023/01/09 15:13:48;;;;;;;9.77;1.55;;;8.10;99.90;;;;;;6133249;23;19916;-86
2023/01/09 15:16:18;;;;;;;10.13;1.38;;;8.10;99.90;;;;;;6158232;23;20021;-86
2023/01/09 15:18:48;;;;;;;10.93;2.00;;;8.10;99.90;;;;;;6182776;23;20015;-84
2023/01/09 15:21:21;;;;;;;12.95;1.92;;;8.10;99.90;;;;;;6208863;23;20460;-87
2023/01/09 15:23:46;;;;;;;18.30;3.55;;;8.10;99.90;;;;;;6180305;23;20040;-87
2023/01/09 15:26:28;;;;;;;10.20;1.88;;;8.20;99.90;;;;;;6185416;23;20754;-85
2023/01/09 15:29:16;;;;;;;20.13;2.15;;;8.10;99.90;;;;;;6184524;23;20016;-87
2023/01/09 15:31:44;;;;;;;10.80;1.23;;;8.00;99.90;;;;;;6185787;23;20020;-87
2023/01/09 15:34:17;;;;;;;10.75;1.80;;;8.00;99.90;;;;;;6184157;23;20044;-88
2023/01/09 15:36:42;;;;;;;8.20;1.38;;;8.30;99.90;;;;;;6181181;23;20028;-88
2023/01/09 15:39:08;;;;;;;8.82;1.73;;;7.90;99.90;;;;;;6206121;23;20008;-88
2023/01/09 15:44:27;;;;;;;13.10;2.13;;;8.90;99.90;;;;;;6180991;23;20023;-86
2023/01/09 15:46:57;;;;;;;14.13;2.40;;;7.80;99.90;;;;;;6207557;23;20071;-84
2023/01/09 15:49:23;;;;;;;12.57;1.92;;;7.70;99.90;;;;;;6207651;23;20012;-85
2023/01/09 15:51:49;;;;;;;11.10;2.15;;;7.70;99.90;;;;;;6181175;23;20445;-86
2023/01/09 15:54:22;;;;;;;8.70;1.75;;;7.60;99.90;;;;;;6180478;23;20031;-85
2023/01/09 15:56:47;;;;;;;12.05;1.90;;;7.60;99.90;;;;;;6185778;23;20016;-85
2023/01/09 15:59:26;;;;;;;15.27;2.10;;;7.60;99.90;;;;;;6184407;23;20024;-88
2023/01/09 16:04:49;;;;;;;;;;;7.60;99.90;;;;;;6210403;23;20887;-88
2023/01/09 16:07:18;;;;;;;15.43;2.30;;;7.60;99.90;;;;;;6183668;23;19918;-88
2023/01/09 16:09:51;;;;;;;14.50;2.45;;;7.60;99.90;;;;;;6161256;23;20091;-89
2023/01/09 16:12:26;;;;;;;14.50;3.15;;;7.60;99.90;;;;;;6212916;23;20011;-89
2023/01/09 16:14:55;;;;;;;10.57;1.73;;;7.60;99.90;;;;;;6211381;23;20009;-88
2023/01/09 16:17:25;;;;;;;6.75;2.05;;;7.60;99.90;;;;;;6186507;23;20712;-89
2023/01/09 16:19:53;;;;;;;11.65;1.63;;;7.50;99.90;;;;;;6160448;23;20031;-89
2023/01/09 16:22:24;;;;;;;10.75;2.85;;;8.10;99.90;;;;;;6159046;23;20530;-89
2023/01/09 16:24:57;;;;;;;15.27;2.30;;;7.40;99.90;;;;;;6158902;23;20017;-86
2023/01/09 16:27:27;;;;;;;16.58;2.63;;;7.50;99.90;;;;;;6157852;23;20067;-82
2023/01/09 16:29:55;;;;;;;12.15;1.67;;;7.50;99.90;;;;;;6182578;23;20017;-85
2023/01/09 16:32:24;;;;;;;12.20;2.50;;;7.40;99.90;;;;;;6157486;23;20012;-84
2023/01/09 16:34:55;;;;;;;14.88;2.60;;;7.40;99.90;;;;;;6157881;23;20019;-84
2023/01/09 16:37:23;;;;;;;17.13;2.55;;;7.50;99.90;;;;;;6156568;23;20009;-85
2023/01/09 16:40:04;;;;;;;14.02;2.20;;;7.50;99.90;;;;;;6158360;23;20405;-85
2023/01/09 16:45:16;;;;;;;9.88;2.00;;;7.50;99.90;;;;;;6183486;23;20024;-87
2023/01/09 16:47:42;;;;;;;18.83;3.25;;;7.40;99.90;;;;;;6159224;23;20023;-86
2023/01/09 16:50:12;;;;;;;18.13;2.78;;;7.30;99.90;;;;;;6158993;23;20422;-88
2023/01/09 16:52:40;;;;;;;17.88;4.03;;;7.30;99.90;;;;;;6157179;23;20013;-85
2023/01/09 16:55:06;;;;;;;19.55;2.70;;;7.30;99.90;;;;;;6133975;23;20028;-83
2023/01/09 16:57:33;;;;;;;18.77;3.70;;;7.30;99.90;;;;;;6158057;23;20016;-83
2023/01/09 17:00:00;;;;;;;16.67;3.65;;;7.30;99.90;;;;;;6161055;23;20027;-88
2023/01/09 17:02:49;;;;;;;13.43;3.30;;;7.30;99.90;;;;;;6159837;23;20008;-84
2023/01/09 17:05:14;;;;;;;18.55;3.25;;;7.30;99.90;;;;;;6162707;23;20098;-85
2023/01/09 17:07:59;;;;;;;15.18;3.10;;;7.30;99.90;;;;;;6183667;23;20461;-86
2023/01/09 17:10:37;;;;;;;18.60;3.05;;;7.20;99.90;;;;;;6159305;23;20465;-87
2023/01/09 17:13:22;;;;;;;18.73;3.10;;;7.20;99.90;;;;;;6209196;23;20123;-87
2023/01/09 17:15:49;;;;;;;17.55;3.00;;;7.20;99.90;;;;;;6161790;23;20099;-85
2023/01/09 17:18:20;;;;;;;16.45;3.30;;;7.10;99.90;;;;;;6160768;23;20070;-85
2023/01/09 17:20:49;;;;;;;14.20;2.97;;;7.10;99.90;;;;;;6160077;23;20096;-86
2023/01/09 17:23:15;;;;;;;18.48;3.05;;;7.00;99.90;;;;;;6157478;23;20013;-86
2023/01/09 17:28:31;;;;;;;14.07;2.17;;;6.90;99.90;;;;;;6210176;23;20393;-85
2023/01/09 17:31:34;;;;;;;18.20;2.53;;;6.90;99.90;;;;;;6158643;23;20070;-85
2023/01/09 17:34:19;;;;;;;19.52;3.55;;;6.80;99.90;;;;;;6142227;23;20076;-89
2023/01/09 17:40:22;;;;;;;10.90;2.47;;;6.70;99.90;;;;;;6194332;23;20036;-87
2023/01/09 17:42:48;;;;;;;19.83;2.88;;;6.70;99.90;;;;;;6182861;23;20016;-85
2023/01/09 17:45:14;;;;;;;21.77;3.60;;;6.70;99.90;;;;;;6159511;23;20360;-85
2023/01/09 17:47:39;;;;;;;12.35;2.70;;;6.60;99.90;;;;;;6211021;23;20048;-85
2023/01/09 17:50:06;;;;;;;11.68;2.78;;;7.30;99.90;;;;;;6184073;23;20016;-84
2023/01/09 17:52:32;;;;;;;20.13;4.85;;;6.50;99.90;;;;;;6183700;23;20051;-86
2023/01/09 17:55:03;;;;;;;24.25;3.33;;;6.50;99.90;;;;;;6159608;23;20017;-84
2023/01/09 17:57:30;;;;;;;14.75;3.15;;;6.50;99.90;;;;;;6157990;23;20338;-84
2023/01/09 17:59:56;;;;;;;13.38;2.78;;;6.50;99.90;;;;;;6177711;23;20014;-86
2023/01/09 18:02:23;;;;;;;17.85;2.97;;;6.40;99.90;;;;;;6121319;23;20010;-86
2023/01/09 18:04:48;;;;;;;13.70;2.85;;;6.40;99.90;;;;;;6094147;23;20069;-84
2023/01/09 18:07:15;;;;;;;18.55;3.50;;;6.40;99.90;;;;;;6120507;23;20014;-85
2023/01/09 18:09:41;;;;;;;19.40;2.58;;;6.30;99.90;;;;;;6069647;23;20018;-85
2023/01/09 18:12:07;;;;;;;15.43;2.65;;;6.30;99.90;;;;;;6071934;23;20013;-85
2023/01/09 18:14:34;;;;;;;23.85;3.20;;;6.20;99.90;;;;;;6094674;23;20057;-85
2023/01/09 18:17:01;;;;;;;11.70;2.97;;;6.30;99.90;;;;;;6093915;23;20351;-85
2023/01/09 18:19:28;;;;;;;15.98;2.80;;;6.20;99.90;;;;;;6071471;23;20013;-85
2023/01/09 18:21:54;;;;;;;15.70;2.55;;;6.20;99.90;;;;;;6072164;23;20014;-85
2023/01/09 18:24:19;;;;;;;20.95;3.08;;;6.20;99.90;;;;;;6071420;23;20593;-82
2023/01/09 18:26:45;;;;;;;13.75;3.15;;;6.10;99.90;;;;;;6094304;23;20018;-85
2023/01/09 18:29:12;;;;;;;21.05;3.10;;;6.10;99.90;;;;;;6070113;23;20014;-85
2023/01/09 18:31:38;;;;;;;16.70;3.08;;;6.10;99.90;;;;;;6070209;23;20017;-85
2023/01/09 18:34:06;;;;;;;19.45;3.60;;;6.10;99.90;;;;;;6068764;23;20017;-85
2023/01/09 18:36:32;;;;;;;21.17;2.95;;;6.00;99.90;;;;;;6094020;23;20093;-85
2023/01/09 18:39:00;;;;;;;21.17;3.55;;;6.00;99.90;;;;;;6068303;23;20013;-85
2023/01/09 18:42:00;;;;;;;12.57;2.13;;;6.00;99.90;;;;;;6094315;23;20013;-86